sensor_id;sensor_type;location;lat;lon;timestamp;pressure;altitude;pressure_sealevel;temperature;humidity
10462;BME280;5278;42.656;23.374;2023-04-02T00:01:54;93759.16;;;10.53;67.25
10462;BME280;5278;42.656;23.374;2023-04-02T00:04:22;93756.00;;;10.51;67.06
10462;BME280;5278;42.656;23.374;2023-04-02T00:07:25;93754.59;;;10.55;66.78
10462;BME280;5278;42.656;23.374;2023-04-02T00:09:57;93720.56;;;10.36;66.63
10462;BME280;5278;42.656;23.374;2023-04-02T00:12:24;93753.00;;;10.60;66.19
10462;BME280;5278;42.656;23.374;2023-04-02T00:14:53;93752.03;;;10.68;65.83
10462;BME280;5278;42.656;23.374;2023-04-02T00:17:23;93729.19;;;10.44;64.96
10462;BME280;5278;42.656;23.374;2023-04-02T00:19:55;93728.19;;;10.51;64.46
10462;BME280;5278;42.656;23.374;2023-04-02T00:22:27;93758.81;;;10.69;63.98
10462;BME280;5278;42.656;23.374;2023-04-02T00:24:55;93761.41;;;10.69;63.84
10462;BME280;5278;42.656;23.374;2023-04-02T00:27:22;93745.22;;;10.67;64.05
10462;BME280;5278;42.656;23.374;2023-04-02T00:29:51;93746.41;;;10.71;63.43
10462;BME280;5278;42.656;23.374;2023-04-02T00:32:21;93734.63;;;10.68;63.55
10462;BME280;5278;42.656;23.374;2023-04-02T00:34:50;93727.66;;;10.69;64.04
10462;BME280;5278;42.656;23.374;2023-04-02T00:37:19;93735.03;;;10.65;63.59
10462;BME280;5278;42.656;23.374;2023-04-02T00:39:51;93738.22;;;10.67;63.70
10462;BME280;5278;42.656;23.374;2023-04-02T00:42:19;93744.22;;;10.68;63.11
10462;BME280;5278;42.656;23.374;2023-04-02T00:44:49;93736.41;;;10.55;63.45
10462;BME280;5278;42.656;23.374;2023-04-02T00:47:19;93745.16;;;10.47;63.74
10462;BME280;5278;42.656;23.374;2023-04-02T00:49:52;93743.16;;;10.43;64.27
10462;BME280;5278;42.656;23.374;2023-04-02T00:52:25;93751.34;;;10.40;65.66
10462;BME280;5278;42.656;23.374;2023-04-02T00:55:00;93746.53;;;10.36;65.55
10462;BME280;5278;42.656;23.374;2023-04-02T00:57:30;93732.97;;;10.34;66.44
10462;BME280;5278;42.656;23.374;2023-04-02T01:00:01;93736.94;;;10.37;64.73
10462;BME280;5278;42.656;23.374;2023-04-02T01:02:36;93730.38;;;10.41;64.89
10462;BME280;5278;42.656;23.374;2023-04-02T01:05:20;93731.97;;;10.42;66.85
10462;BME280;5278;42.656;23.374;2023-04-02T01:08:00;93748.31;;;10.29;69.58
10462;BME280;5278;42.656;23.374;2023-04-02T01:10:53;93744.31;;;9.86;73.63
10462;BME280;5278;42.656;23.374;2023-04-02T01:13:30;93742.09;;;9.48;75.24
10462;BME280;5278;42.656;23.374;2023-04-02T01:16:04;93772.41;;;9.27;77.00
10462;BME280;5278;42.656;23.374;2023-04-02T01:18:43;93758.06;;;8.96;78.50
10462;BME280;5278;42.656;23.374;2023-04-02T01:21:25;93753.22;;;8.72;80.28
10462;BME280;5278;42.656;23.374;2023-04-02T01:24:02;93763.31;;;8.46;81.85
10462;BME280;5278;42.656;23.374;2023-04-02T01:26:44;93774.78;;;8.37;82.70
10462;BME280;5278;42.656;23.374;2023-04-02T01:29:14;93779.06;;;8.30;83.64
10462;BME280;5278;42.656;23.374;2023-04-02T01:31:43;93766.38;;;8.35;83.71
10462;BME280;5278;42.656;23.374;2023-04-02T01:34:14;93758.69;;;8.41;83.34
10462;BME280;5278;42.656;23.374;2023-04-02T01:36:52;93771.78;;;8.54;82.94
10462;BME280;5278;42.656;23.374;2023-04-02T01:39:32;93769.06;;;8.62;82.40
10462;BME280;5278;42.656;23.374;2023-04-02T01:42:10;93772.16;;;8.73;81.55
10462;BME280;5278;42.656;23.374;2023-04-02T01:44:47;93756.25;;;8.76;81.38
10462;BME280;5278;42.656;23.374;2023-04-02T01:47:17;93763.25;;;8.82;80.49
10462;BME280;5278;42.656;23.374;2023-04-02T01:49:46;93758.09;;;8.82;80.30
10462;BME280;5278;42.656;23.374;2023-04-02T01:52:16;93758.56;;;8.92;80.48
10462;BME280;5278;42.656;23.374;2023-04-02T01:54:46;93767.03;;;9.00;80.23
10462;BME280;5278;42.656;23.374;2023-04-02T01:57:13;93761.47;;;9.03;79.53
10462;BME280;5278;42.656;23.374;2023-04-02T01:59:43;93761.66;;;9.02;79.23
10462;BME280;5278;42.656;23.374;2023-04-02T02:02:12;93754.94;;;9.07;78.60
10462;BME280;5278;42.656;23.374;2023-04-02T02:04:39;93756.97;;;9.12;78.43
10462;BME280;5278;42.656;23.374;2023-04-02T02:07:13;93756.16;;;9.12;78.69
10462;BME280;5278;42.656;23.374;2023-04-02T02:09:41;93764.13;;;9.10;78.13
10462;BME280;5278;42.656;23.374;2023-04-02T02:12:11;93745.78;;;9.12;77.98
10462;BME280;5278;42.656;23.374;2023-04-02T02:14:46;93774.00;;;9.21;77.39
10462;BME280;5278;42.656;23.374;2023-04-02T02:17:16;93775.09;;;9.12;78.89
10462;BME280;5278;42.656;23.374;2023-04-02T02:19:46;93760.16;;;8.86;80.18
10462;BME280;5278;42.656;23.374;2023-04-02T02:22:20;93766.41;;;8.77;81.40
10462;BME280;5278;42.656;23.374;2023-04-02T02:24:50;93728.66;;;8.47;82.02
10462;BME280;5278;42.656;23.374;2023-04-02T02:27:41;93773.19;;;8.57;83.09
10462;BME280;5278;42.656;23.374;2023-04-02T02:30:15;93770.06;;;8.47;83.22
10462;BME280;5278;42.656;23.374;2023-04-02T02:32:51;93764.41;;;8.37;84.27
10462;BME280;5278;42.656;23.374;2023-04-02T02:35:24;93768.16;;;8.34;84.57
10462;BME280;5278;42.656;23.374;2023-04-02T02:37:56;93762.34;;;8.32;85.23
10462;BME280;5278;42.656;23.374;2023-04-02T02:40:30;93734.19;;;8.08;85.20
10462;BME280;5278;42.656;23.374;2023-04-02T02:43:03;93755.66;;;8.23;85.20
10462;BME280;5278;42.656;23.374;2023-04-02T02:45:38;93758.25;;;8.23;85.35
10462;BME280;5278;42.656;23.374;2023-04-02T02:48:10;93757.44;;;8.22;85.68
10462;BME280;5278;42.656;23.374;2023-04-02T02:50:39;93768.59;;;8.23;85.58
10462;BME280;5278;42.656;23.374;2023-04-02T02:53:15;93759.16;;;8.30;85.24
10462;BME280;5278;42.656;23.374;2023-04-02T02:55:43;93754.31;;;8.27;85.56
10462;BME280;5278;42.656;23.374;2023-04-02T02:58:14;93761.59;;;8.32;85.51
10462;BME280;5278;42.656;23.374;2023-04-02T03:00:44;93747.72;;;8.25;85.10
10462;BME280;5278;42.656;23.374;2023-04-02T03:03:15;93758.63;;;8.35;85.19
10462;BME280;5278;42.656;23.374;2023-04-02T03:05:49;93753.00;;;8.31;85.37
10462;BME280;5278;42.656;23.374;2023-04-02T03:08:21;93754.31;;;8.27;85.32
10462;BME280;5278;42.656;23.374;2023-04-02T03:10:55;93724.50;;;7.95;85.79
10462;BME280;5278;42.656;23.374;2023-04-02T03:13:28;93771.56;;;8.20;85.66
10462;BME280;5278;42.656;23.374;2023-04-02T03:16:02;93767.28;;;8.12;86.43
10462;BME280;5278;42.656;23.374;2023-04-02T03:18:39;93777.19;;;8.09;87.16
10462;BME280;5278;42.656;23.374;2023-04-02T03:21:16;93774.06;;;8.13;87.25
10462;BME280;5278;42.656;23.374;2023-04-02T03:23:49;93783.13;;;8.24;87.03
10462;BME280;5278;42.656;23.374;2023-04-02T03:26:21;93774.41;;;8.25;86.41
10462;BME280;5278;42.656;23.374;2023-04-02T03:28:55;93753.53;;;8.12;86.31
10462;BME280;5278;42.656;23.374;2023-04-02T03:31:31;93777.09;;;8.32;86.31
10462;BME280;5278;42.656;23.374;2023-04-02T03:34:00;93784.31;;;8.36;86.46
10462;BME280;5278;42.656;23.374;2023-04-02T03:36:32;93776.81;;;8.41;85.78
10462;BME280;5278;42.656;23.374;2023-04-02T03:39:08;93781.63;;;8.44;85.41
10462;BME280;5278;42.656;23.374;2023-04-02T03:41:40;93841.78;;;8.46;85.16
10462;BME280;5278;42.656;23.374;2023-04-02T03:44:17;93754.31;;;8.27;84.92
10462;BME280;5278;42.656;23.374;2023-04-02T03:46:49;93785.19;;;8.43;85.21
10462;BME280;5278;42.656;23.374;2023-04-02T03:49:27;93790.72;;;8.40;85.53
10462;BME280;5278;42.656;23.374;2023-04-02T03:51:59;93788.13;;;8.40;85.34
10462;BME280;5278;42.656;23.374;2023-04-02T03:54:29;93782.28;;;8.32;85.71
10462;BME280;5278;42.656;23.374;2023-04-02T03:56:57;93783.78;;;8.26;85.94
10462;BME280;5278;42.656;23.374;2023-04-02T03:59:31;93785.84;;;8.16;86.31
10462;BME280;5278;42.656;23.374;2023-04-02T04:02:09;93789.41;;;8.00;86.91
10462;BME280;5278;42.656;23.374;2023-04-02T04:04:40;93799.13;;;7.84;87.79
10462;BME280;5278;42.656;23.374;2023-04-02T04:07:14;93781.13;;;7.75;88.34
10462;BME280;5278;42.656;23.374;2023-04-02T04:09:47;93789.50;;;7.77;88.43
10462;BME280;5278;42.656;23.374;2023-04-02T04:12:25;93801.53;;;7.85;88.76
10462;BME280;5278;42.656;23.374;2023-04-02T04:14:57;93784.97;;;7.94;88.21
10462;BME280;5278;42.656;23.374;2023-04-02T04:17:32;93803.88;;;7.95;87.35
10462;BME280;5278;42.656;23.374;2023-04-02T04:20:10;93799.94;;;7.84;88.20
10462;BME280;5278;42.656;23.374;2023-04-02T04:22:40;93789.75;;;7.68;88.35
10462;BME280;5278;42.656;23.374;2023-04-02T04:25:17;93823.03;;;7.86;88.04
10462;BME280;5278;42.656;23.374;2023-04-02T04:27:54;93812.69;;;7.86;87.44
10462;BME280;5278;42.656;23.374;2023-04-02T04:30:27;93814.31;;;7.87;87.30
10462;BME280;5278;42.656;23.374;2023-04-02T04:33:00;93815.88;;;7.88;87.54
10462;BME280;5278;42.656;23.374;2023-04-02T04:35:31;93798.31;;;7.68;87.42
10462;BME280;5278;42.656;23.374;2023-04-02T04:38:03;93827.03;;;7.88;87.31
10462;BME280;5278;42.656;23.374;2023-04-02T04:40:33;93819.47;;;7.87;87.28
10462;BME280;5278;42.656;23.374;2023-04-02T04:43:04;93813.94;;;7.90;87.40
10462;BME280;5278;42.656;23.374;2023-04-02T04:45:38;93793.41;;;7.88;87.04
10462;BME280;5278;42.656;23.374;2023-04-02T04:48:09;93824.09;;;8.20;86.63
10462;BME280;5278;42.656;23.374;2023-04-02T04:50:46;93831.97;;;8.42;85.44
10462;BME280;5278;42.656;23.374;2023-04-02T04:53:16;93816.41;;;8.56;83.74
10462;BME280;5278;42.656;23.374;2023-04-02T04:55:46;93831.34;;;8.76;83.11
10462;BME280;5278;42.656;23.374;2023-04-02T04:58:20;93826.38;;;8.95;82.97
10462;BME280;5278;42.656;23.374;2023-04-02T05:00:57;93832.09;;;9.12;82.12
10462;BME280;5278;42.656;23.374;2023-04-02T05:03:32;93826.16;;;9.39;80.54
10462;BME280;5278;42.656;23.374;2023-04-02T05:06:07;93822.88;;;9.80;78.19
10462;BME280;5278;42.656;23.374;2023-04-02T05:08:38;93833.91;;;10.16;76.96
10462;BME280;5278;42.656;23.374;2023-04-02T05:11:10;93738.09;;;9.87;74.87
10462;BME280;5278;42.656;23.374;2023-04-02T05:13:44;93812.75;;;10.67;72.87
10462;BME280;5278;42.656;23.374;2023-04-02T05:16:19;93823.03;;;11.01;71.43
10462;BME280;5278;42.656;23.374;2023-04-02T05:18:55;93826.91;;;11.45;69.42
10462;BME280;5278;42.656;23.374;2023-04-02T05:21:26;93827.72;;;11.98;67.63
10462;BME280;5278;42.656;23.374;2023-04-02T05:24:05;93823.94;;;12.65;65.49
10462;BME280;5278;42.656;23.374;2023-04-02T05:26:38;93826.47;;;13.22;62.02
10462;BME280;5278;42.656;23.374;2023-04-02T05:29:12;93823.09;;;13.71;58.00
10462;BME280;5278;42.656;23.374;2023-04-02T05:31:44;93821.03;;;14.23;57.63
10462;BME280;5278;42.656;23.374;2023-04-02T05:34:21;93827.94;;;14.72;53.92
10462;BME280;5278;42.656;23.374;2023-04-02T05:36:49;93823.09;;;15.05;53.88
10462;BME280;5278;42.656;23.374;2023-04-02T05:39:20;93819.47;;;15.78;50.53
10462;BME280;5278;42.656;23.374;2023-04-02T05:41:56;93816.84;;;16.24;49.22
10462;BME280;5278;42.656;23.374;2023-04-02T05:44:28;93828.34;;;16.70;47.12
10462;BME280;5278;42.656;23.374;2023-04-02T05:46:57;93816.97;;;17.33;46.12
10462;BME280;5278;42.656;23.374;2023-04-02T05:49:30;93814.97;;;17.85;43.21
10462;BME280;5278;42.656;23.374;2023-04-02T05:52:01;93820.38;;;18.12;42.29
10462;BME280;5278;42.656;23.374;2023-04-02T05:54:32;93821.53;;;18.54;42.05
10462;BME280;5278;42.656;23.374;2023-04-02T05:57:02;93825.41;;;19.12;40.41
10462;BME280;5278;42.656;23.374;2023-04-02T05:59:33;93813.59;;;19.41;39.52
10462;BME280;5278;42.656;23.374;2023-04-02T06:02:05;93829.69;;;19.66;38.87
10462;BME280;5278;42.656;23.374;2023-04-02T06:04:41;93827.22;;;19.60;38.25
10462;BME280;5278;42.656;23.374;2023-04-02T06:07:14;93832.88;;;19.73;38.09
10462;BME280;5278;42.656;23.374;2023-04-02T06:09:44;93831.66;;;19.54;37.73
10462;BME280;5278;42.656;23.374;2023-04-02T06:12:22;93831.31;;;19.24;38.20
10462;BME280;5278;42.656;23.374;2023-04-02T06:14:52;93840.53;;;19.21;38.99
10462;BME280;5278;42.656;23.374;2023-04-02T06:17:20;93838.72;;;19.49;38.14
10462;BME280;5278;42.656;23.374;2023-04-02T06:19:48;93830.91;;;19.59;37.68
10462;BME280;5278;42.656;23.374;2023-04-02T06:22:23;93825.25;;;19.72;37.15
10462;BME280;5278;42.656;23.374;2023-04-02T06:24:56;93834.66;;;20.27;36.41
10462;BME280;5278;42.656;23.374;2023-04-02T06:27:25;93819.63;;;20.74;35.08
10462;BME280;5278;42.656;23.374;2023-04-02T06:29:57;93793.91;;;20.49;35.04
10462;BME280;5278;42.656;23.374;2023-04-02T06:32:25;93829.63;;;21.14;34.75
10462;BME280;5278;42.656;23.374;2023-04-02T06:34:54;93819.41;;;21.58;34.05
10462;BME280;5278;42.656;23.374;2023-04-02T06:37:25;93820.81;;;22.21;32.93
10462;BME280;5278;42.656;23.374;2023-04-02T06:39:56;93821.31;;;22.44;31.53
10462;BME280;5278;42.656;23.374;2023-04-02T06:42:26;93822.91;;;22.40;31.81
10462;BME280;5278;42.656;23.374;2023-04-02T06:44:54;93820.22;;;22.75;31.57
10462;BME280;5278;42.656;23.374;2023-04-02T06:47:27;93811.66;;;22.98;31.54
10462;BME280;5278;42.656;23.374;2023-04-02T06:50:03;93825.25;;;23.46;30.86
10462;BME280;5278;42.656;23.374;2023-04-02T06:52:35;93824.25;;;24.15;30.14
10462;BME280;5278;42.656;23.374;2023-04-02T06:55:14;93824.78;;;24.74;28.86
10462;BME280;5278;42.656;23.374;2023-04-02T06:57:49;93805.63;;;25.44;28.02
10462;BME280;5278;42.656;23.374;2023-04-02T07:00:24;93821.75;;;26.08;27.41
10462;BME280;5278;42.656;23.374;2023-04-02T07:02:52;93826.06;;;26.55;26.19
10462;BME280;5278;42.656;23.374;2023-04-02T07:05:22;93820.28;;;26.81;26.10
10462;BME280;5278;42.656;23.374;2023-04-02T07:07:49;93834.72;;;27.21;25.99
10462;BME280;5278;42.656;23.374;2023-04-02T07:10:16;93840.69;;;27.59;24.80
10462;BME280;5278;42.656;23.374;2023-04-02T07:12:44;93825.06;;;27.52;24.76
10462;BME280;5278;42.656;23.374;2023-04-02T07:15:14;93836.03;;;27.64;24.79
10462;BME280;5278;42.656;23.374;2023-04-02T07:17:41;93841.38;;;27.51;24.76
10462;BME280;5278;42.656;23.374;2023-04-02T07:20:19;93837.41;;;27.07;24.76
10462;BME280;5278;42.656;23.374;2023-04-02T07:22:51;93847.06;;;26.43;25.69
10462;BME280;5278;42.656;23.374;2023-04-02T07:25:17;93779.47;;;26.21;26.00
10462;BME280;5278;42.656;23.374;2023-04-02T07:27:44;93846.09;;;27.26;25.09
10462;BME280;5278;42.656;23.374;2023-04-02T07:30:12;93813.53;;;27.65;24.94
10462;BME280;5278;42.656;23.374;2023-04-02T07:32:39;93847.34;;;28.42;23.41
10462;BME280;5278;42.656;23.374;2023-04-02T07:35:07;93849.97;;;28.78;23.20
10462;BME280;5278;42.656;23.374;2023-04-02T07:37:34;93779.88;;;29.06;23.15
10462;BME280;5278;42.656;23.374;2023-04-02T07:40:03;93842.03;;;30.08;21.90
10462;BME280;5278;42.656;23.374;2023-04-02T07:42:33;93847.97;;;30.83;21.17
10462;BME280;5278;42.656;23.374;2023-04-02T07:45:01;93841.53;;;31.22;20.82
10462;BME280;5278;42.656;23.374;2023-04-02T07:47:28;93844.69;;;31.53;20.69
10462;BME280;5278;42.656;23.374;2023-04-02T07:49:55;93851.31;;;31.85;20.46
10462;BME280;5278;42.656;23.374;2023-04-02T07:52:22;93850.69;;;31.88;19.90
10462;BME280;5278;42.656;23.374;2023-04-02T07:54:49;93846.06;;;32.09;19.95
10462;BME280;5278;42.656;23.374;2023-04-02T07:57:19;93836.66;;;32.03;19.80
10462;BME280;5278;42.656;23.374;2023-04-02T07:59:46;93832.97;;;31.87;20.07
10462;BME280;5278;42.656;23.374;2023-04-02T08:02:20;93839.78;;;32.05;19.25
10462;BME280;5278;42.656;23.374;2023-04-02T08:04:47;93840.69;;;32.09;19.84
10462;BME280;5278;42.656;23.374;2023-04-02T08:07:14;93833.97;;;32.77;19.20
10462;BME280;5278;42.656;23.374;2023-04-02T08:09:41;93838.88;;;32.42;18.84
10462;BME280;5278;42.656;23.374;2023-04-02T08:12:08;93842.81;;;31.83;19.03
10462;BME280;5278;42.656;23.374;2023-04-02T08:14:39;93833.56;;;31.92;19.11
10462;BME280;5278;42.656;23.374;2023-04-02T08:17:06;93839.81;;;32.59;18.71
10462;BME280;5278;42.656;23.374;2023-04-02T08:19:33;93843.28;;;33.37;18.21
10462;BME280;5278;42.656;23.374;2023-04-02T08:22:00;93840.25;;;33.75;17.90
10462;BME280;5278;42.656;23.374;2023-04-02T08:24:28;93838.44;;;33.18;17.51
10462;BME280;5278;42.656;23.374;2023-04-02T08:26:55;93854.06;;;32.59;17.93
10462;BME280;5278;42.656;23.374;2023-04-02T08:29:22;93837.63;;;32.73;18.01
10462;BME280;5278;42.656;23.374;2023-04-02T08:31:51;93837.78;;;32.76;17.95
10462;BME280;5278;42.656;23.374;2023-04-02T08:34:18;93841.75;;;33.03;17.81
10462;BME280;5278;42.656;23.374;2023-04-02T08:36:45;93846.00;;;32.59;17.88
10462;BME280;5278;42.656;23.374;2023-04-02T08:39:11;93844.56;;;31.79;18.73
10462;BME280;5278;42.656;23.374;2023-04-02T08:41:43;93844.16;;;31.30;18.79
10462;BME280;5278;42.656;23.374;2023-04-02T08:44:28;93847.28;;;31.03;19.33
10462;BME280;5278;42.656;23.374;2023-04-02T08:47:05;93843.75;;;31.57;18.21
10462;BME280;5278;42.656;23.374;2023-04-02T08:49:39;93838.66;;;31.56;18.50
10462;BME280;5278;42.656;23.374;2023-04-02T08:52:19;93840.59;;;32.80;17.34
10462;BME280;5278;42.656;23.374;2023-04-02T08:54:47;93844.59;;;34.44;16.04
10462;BME280;5278;42.656;23.374;2023-04-02T08:57:23;93855.09;;;34.89;16.02
10462;BME280;5278;42.656;23.374;2023-04-02T08:59:57;93847.44;;;34.63;16.14
10462;BME280;5278;42.656;23.374;2023-04-02T09:02:34;93834.81;;;34.95;15.66
10462;BME280;5278;42.656;23.374;2023-04-02T09:05:05;93828.69;;;34.82;15.34
10462;BME280;5278;42.656;23.374;2023-04-02T09:07:33;93846.72;;;35.37;15.68
10462;BME280;5278;42.656;23.374;2023-04-02T09:10:00;93846.72;;;35.69;15.07
10462;BME280;5278;42.656;23.374;2023-04-02T09:12:29;93831.31;;;36.62;14.75
10462;BME280;5278;42.656;23.374;2023-04-02T09:15:14;93843.88;;;37.12;14.29
10462;BME280;5278;42.656;23.374;2023-04-02T09:17:46;93844.38;;;37.40;14.38
10462;BME280;5278;42.656;23.374;2023-04-02T09:20:15;93840.06;;;37.85;13.58
10462;BME280;5278;42.656;23.374;2023-04-02T09:22:44;93844.38;;;37.40;13.80
10462;BME280;5278;42.656;23.374;2023-04-02T09:25:18;93853.09;;;36.65;13.88
10462;BME280;5278;42.656;23.374;2023-04-02T09:27:47;93842.66;;;35.94;14.42
10462;BME280;5278;42.656;23.374;2023-04-02T09:30:23;93845.66;;;35.42;14.75
10462;BME280;5278;42.656;23.374;2023-04-02T09:32:56;93842.63;;;34.84;15.23
10462;BME280;5278;42.656;23.374;2023-04-02T09:35:27;93841.97;;;34.32;15.15
10462;BME280;5278;42.656;23.374;2023-04-02T09:38:23;93824.22;;;35.49;15.08
10462;BME280;5278;42.656;23.374;2023-04-02T09:40:57;93833.31;;;36.46;14.43
10462;BME280;5278;42.656;23.374;2023-04-02T09:43:26;93782.50;;;35.03;15.41
10462;BME280;5278;42.656;23.374;2023-04-02T09:46:01;93843.22;;;32.14;17.63
10462;BME280;5278;42.656;23.374;2023-04-02T09:48:31;93840.72;;;29.88;19.97
10462;BME280;5278;42.656;23.374;2023-04-02T09:51:10;93851.03;;;28.54;21.19
10462;BME280;5278;42.656;23.374;2023-04-02T09:53:39;93841.88;;;28.24;20.97
10462;BME280;5278;42.656;23.374;2023-04-02T09:56:08;93822.41;;;29.08;21.36
10462;BME280;5278;42.656;23.374;2023-04-02T09:58:36;93830.72;;;29.06;21.49
10462;BME280;5278;42.656;23.374;2023-04-02T10:01:03;93832.41;;;28.18;21.86
10462;BME280;5278;42.656;23.374;2023-04-02T10:03:34;93830.91;;;27.13;22.54
10462;BME280;5278;42.656;23.374;2023-04-02T10:06:08;93840.69;;;26.07;23.79
10462;BME280;5278;42.656;23.374;2023-04-02T10:08:37;93831.56;;;25.76;24.21
10462;BME280;5278;42.656;23.374;2023-04-02T10:11:07;93830.56;;;25.90;24.20
10462;BME280;5278;42.656;23.374;2023-04-02T10:13:42;93834.53;;;26.90;23.45
10462;BME280;5278;42.656;23.374;2023-04-02T10:16:16;93820.06;;;26.64;23.20
10462;BME280;5278;42.656;23.374;2023-04-02T10:18:48;93822.09;;;27.26;22.90
10462;BME280;5278;42.656;23.374;2023-04-02T10:21:18;93816.44;;;28.49;21.12
10462;BME280;5278;42.656;23.374;2023-04-02T10:23:48;93811.22;;;29.63;19.15
10462;BME280;5278;42.656;23.374;2023-04-02T10:26:29;93802.88;;;30.50;18.60
10462;BME280;5278;42.656;23.374;2023-04-02T10:29:10;93808.13;;;31.02;18.51
10462;BME280;5278;42.656;23.374;2023-04-02T10:31:49;93806.13;;;31.28;18.04
10462;BME280;5278;42.656;23.374;2023-04-02T10:34:26;93806.66;;;31.72;17.77
10462;BME280;5278;42.656;23.374;2023-04-02T10:37:08;93805.09;;;31.41;17.81
10462;BME280;5278;42.656;23.374;2023-04-02T10:39:39;93815.03;;;29.14;20.23
10462;BME280;5278;42.656;23.374;2023-04-02T10:42:15;93826.66;;;27.12;22.00
10462;BME280;5278;42.656;23.374;2023-04-02T10:44:51;93799.44;;;26.69;22.62
10462;BME280;5278;42.656;23.374;2023-04-02T10:47:31;93821.84;;;26.68;22.88
10462;BME280;5278;42.656;23.374;2023-04-02T10:50:21;93778.53;;;26.90;23.03
10462;BME280;5278;42.656;23.374;2023-04-02T10:52:55;93814.97;;;27.35;22.59
10462;BME280;5278;42.656;23.374;2023-04-02T10:55:25;93777.81;;;28.64;21.55
10462;BME280;5278;42.656;23.374;2023-04-02T10:57:56;93792.91;;;28.99;21.15
10462;BME280;5278;42.656;23.374;2023-04-02T11:00:27;93803.56;;;28.82;21.43
10462;BME280;5278;42.656;23.374;2023-04-02T11:03:00;93802.84;;;29.38;20.90
10462;BME280;5278;42.656;23.374;2023-04-02T11:05:34;93802.41;;;28.75;21.47
10462;BME280;5278;42.656;23.374;2023-04-02T11:08:10;93805.13;;;27.72;21.99
10462;BME280;5278;42.656;23.374;2023-04-02T11:10:45;93796.19;;;26.86;23.15
10462;BME280;5278;42.656;23.374;2023-04-02T11:13:19;93805.03;;;27.77;22.13
10462;BME280;5278;42.656;23.374;2023-04-02T11:15:48;93795.16;;;29.06;20.79
10462;BME280;5278;42.656;23.374;2023-04-02T11:18:22;93775.53;;;28.80;21.02
10462;BME280;5278;42.656;23.374;2023-04-02T11:21:03;93797.09;;;28.52;20.96
10462;BME280;5278;42.656;23.374;2023-04-02T11:23:53;93801.72;;;27.30;22.54
10462;BME280;5278;42.656;23.374;2023-04-02T11:26:31;93800.09;;;26.47;23.23
10462;BME280;5278;42.656;23.374;2023-04-02T11:29:07;93793.66;;;25.84;24.17
10462;BME280;5278;42.656;23.374;2023-04-02T11:31:37;93801.94;;;25.21;25.18
10462;BME280;5278;42.656;23.374;2023-04-02T11:34:03;93792.03;;;26.01;24.44
10462;BME280;5278;42.656;23.374;2023-04-02T11:37:00;93786.41;;;27.50;22.89
10462;BME280;5278;42.656;23.374;2023-04-02T11:39:49;93785.16;;;28.58;21.50
10462;BME280;5278;42.656;23.374;2023-04-02T11:42:25;93784.53;;;28.08;21.72
10462;BME280;5278;42.656;23.374;2023-04-02T11:44:52;93788.88;;;27.32;22.45
10462;BME280;5278;42.656;23.374;2023-04-02T11:47:20;93789.09;;;26.95;22.52
10462;BME280;5278;42.656;23.374;2023-04-02T11:49:59;93781.75;;;26.60;22.87
10462;BME280;5278;42.656;23.374;2023-04-02T11:52:37;93775.84;;;26.30;23.24
10462;BME280;5278;42.656;23.374;2023-04-02T11:55:26;93740.22;;;25.61;23.68
10462;BME280;5278;42.656;23.374;2023-04-02T11:58:03;93783.97;;;25.32;24.08
10462;BME280;5278;42.656;23.374;2023-04-02T12:03:54;93767.03;;;24.56;25.44
10462;BME280;5278;42.656;23.374;2023-04-02T12:06:32;93784.91;;;24.51;25.04
10462;BME280;5278;42.656;23.374;2023-04-02T12:09:15;93781.78;;;24.15;25.26
10462;BME280;5278;42.656;23.374;2023-04-02T12:11:45;93780.63;;;23.92;25.52
10462;BME280;5278;42.656;23.374;2023-04-02T12:17:16;93787.03;;;23.47;26.80
10462;BME280;5278;42.656;23.374;2023-04-02T12:19:48;93783.75;;;23.65;27.08
10462;BME280;5278;42.656;23.374;2023-04-02T12:22:22;93754.97;;;22.94;27.12
10462;BME280;5278;42.656;23.374;2023-04-02T12:24:53;93752.53;;;22.13;28.30
10462;BME280;5278;42.656;23.374;2023-04-02T12:27:24;93689.06;;;21.42;28.50
10462;BME280;5278;42.656;23.374;2023-04-02T12:29:52;93778.97;;;21.83;28.61
10462;BME280;5278;42.656;23.374;2023-04-02T12:32:24;93785.31;;;21.62;29.45
10462;BME280;5278;42.656;23.374;2023-04-02T12:34:53;93786.31;;;21.25;30.33
10462;BME280;5278;42.656;23.374;2023-04-02T12:37:24;93788.31;;;20.98;30.52
10462;BME280;5278;42.656;23.374;2023-04-02T12:39:56;93786.94;;;20.85;30.78
10462;BME280;5278;42.656;23.374;2023-04-02T12:42:31;93778.78;;;20.92;30.44
10462;BME280;5278;42.656;23.374;2023-04-02T12:44:58;93768.09;;;20.56;30.75
10462;BME280;5278;42.656;23.374;2023-04-02T12:47:27;93782.75;;;20.37;30.97
10462;BME280;5278;42.656;23.374;2023-04-02T12:49:55;93783.78;;;20.31;31.22
10462;BME280;5278;42.656;23.374;2023-04-02T12:52:25;93772.03;;;20.59;31.25
10462;BME280;5278;42.656;23.374;2023-04-02T12:54:57;93772.47;;;21.08;30.32
10462;BME280;5278;42.656;23.374;2023-04-02T12:57:37;93755.00;;;20.87;30.10
10462;BME280;5278;42.656;23.374;2023-04-02T13:00:27;93758.72;;;20.96;30.18
10462;BME280;5278;42.656;23.374;2023-04-02T13:02:59;93759.19;;;20.83;30.35
10462;BME280;5278;42.656;23.374;2023-04-02T13:05:32;93762.28;;;20.59;30.36
10462;BME280;5278;42.656;23.374;2023-04-02T13:08:00;93759.53;;;20.39;30.50
10462;BME280;5278;42.656;23.374;2023-04-02T13:10:29;93758.50;;;20.40;31.09
10462;BME280;5278;42.656;23.374;2023-04-02T13:12:57;93757.03;;;20.65;31.19
10462;BME280;5278;42.656;23.374;2023-04-02T13:15:27;93751.56;;;20.86;30.15
10462;BME280;5278;42.656;23.374;2023-04-02T13:18:05;93749.78;;;21.02;29.92
10462;BME280;5278;42.656;23.374;2023-04-02T13:20:33;93751.66;;;21.12;30.01
10462;BME280;5278;42.656;23.374;2023-04-02T13:23:21;93744.53;;;21.22;29.54
10462;BME280;5278;42.656;23.374;2023-04-02T13:25:51;93752.00;;;21.66;29.16
10462;BME280;5278;42.656;23.374;2023-04-02T13:28:18;93750.41;;;21.75;28.75
10462;BME280;5278;42.656;23.374;2023-04-02T13:30:45;93747.50;;;21.76;29.03
10462;BME280;5278;42.656;23.374;2023-04-02T13:33:12;93752.53;;;21.73;28.46
10462;BME280;5278;42.656;23.374;2023-04-02T13:35:40;93743.78;;;21.77;28.66
10462;BME280;5278;42.656;23.374;2023-04-02T13:38:07;93684.06;;;21.36;28.30